Time;durP1;ratioP1;P1;durP2;ratioP2;P2;SDS_P1;SDS_P2;PMS_P1;PMS_P2;Temp;Humidity;BMP_temperature;BMP_pressure;BME280_temperature;BME280_humidity;BME280_pressure;Samples;Min_cycle;Max_cycle;Signal;HPM_P1;HPM_P2
2021/08/09 00:01:23;;;;;;;6.13;2.70;;;16.10;79.00;;;;;;5055851;28;20047;-37
2021/08/09 00:03:49;;;;;;;7.07;3.53;;;16.00;79.50;;;;;;5055425;28;20021;-38
2021/08/09 00:06:15;;;;;;;4.53;2.78;;;16.00;79.10;;;;;;5055646;28;20033;-38
2021/08/09 00:08:40;;;;;;;4.25;2.00;;;16.00;79.20;;;;;;5056432;28;20337;-36
2021/08/09 00:11:06;;;;;;;7.35;2.22;;;16.10;79.00;;;;;;5055853;28;20494;-37
2021/08/09 00:13:31;;;;;;;6.28;2.75;;;16.10;78.80;;;;;;5055485;28;20032;-37
2021/08/09 00:15:57;;;;;;;5.05;2.25;;;16.10;79.00;;;;;;5055406;28;20021;-36
2021/08/09 00:18:25;;;;;;;4.50;2.20;;;16.20;78.50;;;;;;5055552;28;20032;-36
2021/08/09 00:20:52;;;;;;;4.22;2.30;;;16.10;78.90;;;;;;5055234;28;20112;-36
2021/08/09 00:23:18;;;;;;;4.65;2.65;;;16.20;78.20;;;;;;5055484;28;20032;-36
2021/08/09 00:25:44;;;;;;;5.85;2.15;;;16.10;79.20;;;;;;5054749;28;20025;-36
2021/08/09 00:28:09;;;;;;;3.40;2.15;;;16.10;78.50;;;;;;5055224;28;20384;-36
2021/08/09 00:30:35;;;;;;;6.13;2.92;;;16.10;78.60;;;;;;5054840;28;20029;-36
2021/08/09 00:33:01;;;;;;;5.93;2.58;;;16.10;78.80;;;;;;5054823;28;20056;-36
2021/08/09 00:35:26;;;;;;;3.25;2.17;;;16.00;79.20;;;;;;5054589;28;20025;-36
2021/08/09 00:37:52;;;;;;;6.00;2.75;;;16.00;79.50;;;;;;5054696;28;20017;-36
2021/08/09 00:40:18;;;;;;;5.28;2.83;;;16.20;78.00;;;;;;5054238;28;20029;-35
2021/08/09 00:42:43;;;;;;;3.75;2.22;;;16.20;77.70;;;;;;5054290;28;20535;-37
2021/08/09 00:45:09;;;;;;;7.75;2.53;;;16.10;78.70;;;;;;5052736;28;20025;-35
2021/08/09 00:47:35;;;;;;;5.65;2.30;;;15.90;78.90;;;;;;5053878;28;20025;-36
2021/08/09 00:50:01;;;;;;;7.18;2.40;;;16.00;78.60;;;;;;5054131;28;20095;-35
2021/08/09 00:52:27;;;;;;;7.80;3.35;;;15.90;78.80;;;;;;5054033;28;20051;-47
2021/08/09 00:54:52;;;;;;;4.97;2.80;;;15.80;79.00;;;;;;5054142;28;20025;-47
2021/08/09 00:57:18;;;;;;;2.67;2.35;;;15.80;79.00;;;;;;5054214;28;20049;-47
2021/08/09 00:59:44;;;;;;;5.07;2.75;;;16.00;78.70;;;;;;5053756;28;20021;-46
2021/08/09 01:02:10;;;;;;;7.45;2.28;;;15.80;78.80;;;;;;5053436;28;20017;-49
2021/08/09 01:04:35;;;;;;;7.35;3.85;;;15.80;79.10;;;;;;5053015;28;20066;-47
2021/08/09 01:07:02;;;;;;;6.00;2.30;;;15.70;79.10;;;;;;5053539;28;20017;-47
2021/08/09 01:09:49;;;;;;;4.75;2.70;;;15.80;79.10;;;;;;5053797;28;20025;-52
2021/08/09 01:12:23;;;;;;;6.50;2.28;;;15.80;78.60;;;;;;5053336;28;20021;-49
2021/08/09 01:15:12;;;;;;;10.07;2.78;;;15.80;78.70;;;;;;5053546;28;20104;-48
2021/08/09 01:17:42;;;;;;;6.93;2.42;;;15.80;78.50;;;;;;5053438;28;20118;-46
2021/08/09 01:20:17;;;;;;;7.85;2.70;;;15.80;78.50;;;;;;5053324;28;20031;-48
2021/08/09 01:22:49;;;;;;;7.32;2.65;;;15.90;78.60;;;;;;5051770;28;20270;-48
2021/08/09 01:25:28;;;;;;;4.60;2.58;;;15.80;79.10;;;;;;5053288;28;20032;-47
2021/08/09 01:27:56;;;;;;;5.37;3.17;;;15.70;79.30;;;;;;5053203;28;20013;-48
2021/08/09 01:30:24;;;;;;;7.47;2.65;;;15.70;79.00;;;;;;5053006;28;20536;-47
2021/08/09 01:32:51;;;;;;;7.50;3.15;;;15.70;79.00;;;;;;5052957;28;20127;-47
2021/08/09 01:35:18;;;;;;;5.38;2.80;;;15.50;79.70;;;;;;5053430;28;20024;-47
2021/08/09 01:37:49;;;;;;;8.38;2.67;;;15.50;79.50;;;;;;5053260;28;20040;-50
2021/08/09 01:40:15;;;;;;;7.03;2.80;;;15.60;79.60;;;;;;5053383;28;20108;-48
2021/08/09 01:42:44;;;;;;;6.45;3.33;;;15.70;79.30;;;;;;5053227;28;20023;-47
2021/08/09 01:45:12;;;;;;;6.43;3.00;;;15.60;79.50;;;;;;5051959;28;20049;-48
2021/08/09 01:47:38;;;;;;;5.80;2.85;;;15.40;80.50;;;;;;5053620;28;20043;-51
2021/08/09 01:50:06;;;;;;;6.88;2.72;;;15.40;80.20;;;;;;5053527;28;20032;-47
2021/08/09 01:52:33;;;;;;;8.15;2.97;;;15.40;80.10;;;;;;5053151;28;20021;-47
2021/08/09 01:54:59;;;;;;;4.88;2.60;;;15.40;80.20;;;;;;5052121;28;20021;-46
2021/08/09 01:57:27;;;;;;;5.47;2.63;;;15.40;80.30;;;;;;5052917;28;20064;-48
2021/08/09 01:59:53;;;;;;;5.22;1.80;;;15.30;80.30;;;;;;5052879;28;20056;-46
2021/08/09 02:02:32;;;;;;;7.70;4.45;;;15.30;80.60;;;;;;5053313;28;20532;-48
2021/08/09 02:05:13;;;;;;;5.40;2.72;;;15.20;81.10;;;;;;5053111;28;20044;-46
2021/08/09 02:07:45;;;;;;;3.83;1.92;;;15.20;81.50;;;;;;5052605;28;20029;-46
2021/08/09 02:10:13;;;;;;;6.15;2.35;;;15.20;81.40;;;;;;5053205;28;20028;-46
2021/08/09 02:12:48;;;;;;;8.10;2.22;;;15.10;81.60;;;;;;5053329;28;20044;-46
2021/08/09 02:15:17;;;;;;;8.45;3.53;;;15.20;81.60;;;;;;5054058;28;20334;-47
2021/08/09 02:17:50;;;;;;;6.70;2.78;;;15.00;81.90;;;;;;5057566;28;20017;-47
2021/08/09 02:20:29;;;;;;;6.32;2.20;;;15.10;81.80;;;;;;5057035;28;20036;-46
2021/08/09 02:22:57;;;;;;;7.22;2.80;;;15.10;81.70;;;;;;5055854;28;20025;-47
2021/08/09 02:25:27;;;;;;;6.25;2.72;;;15.10;81.70;;;;;;5057086;28;20384;-46
2021/08/09 02:28:11;;;;;;;8.68;3.22;;;15.10;81.80;;;;;;5056903;28;20021;-46
2021/08/09 02:30:40;;;;;;;8.30;2.85;;;15.00;82.10;;;;;;5057342;28;20025;-48
2021/08/09 02:33:06;;;;;;;9.30;2.65;;;15.00;82.50;;;;;;5055414;28;20139;-46
2021/08/09 02:35:34;;;;;;;3.08;2.17;;;15.00;82.10;;;;;;5056411;28;20048;-46
2021/08/09 02:38:00;;;;;;;6.75;3.67;;;15.00;82.30;;;;;;5056351;28;20032;-47
2021/08/09 02:40:27;;;;;;;5.50;2.55;;;15.00;82.20;;;;;;5057136;28;20029;-47
2021/08/09 02:42:53;;;;;;;9.57;3.58;;;15.10;82.10;;;;;;5056255;28;20385;-50
2021/08/09 02:45:19;;;;;;;5.97;2.80;;;15.10;82.00;;;;;;5056300;28;20028;-45
2021/08/09 02:47:45;;;;;;;7.60;3.63;;;15.20;81.80;;;;;;5056393;28;20025;-47
2021/08/09 02:50:13;;;;;;;6.50;3.17;;;15.10;81.90;;;;;;5056424;28;20025;-48
2021/08/09 02:52:40;;;;;;;10.10;3.17;;;15.10;82.30;;;;;;5056180;28;20021;-37
2021/08/09 02:55:08;;;;;;;11.77;2.80;;;15.10;81.90;;;;;;5056220;28;20033;-37
2021/08/09 02:57:35;;;;;;;8.95;2.45;;;15.10;82.00;;;;;;5056046;28;20413;-36
2021/08/09 03:00:00;;;;;;;8.55;3.25;;;15.10;81.70;;;;;;5055967;28;20024;-37
2021/08/09 03:02:29;;;;;;;5.68;3.10;;;15.10;81.70;;;;;;5056173;28;20017;-37
2021/08/09 03:04:56;;;;;;;6.97;2.72;;;15.00;82.10;;;;;;5056725;28;20025;-37
2021/08/09 03:07:24;;;;;;;6.78;2.88;;;15.10;82.20;;;;;;5056197;28;20461;-37
2021/08/09 03:09:50;;;;;;;7.90;3.25;;;15.00;82.30;;;;;;5056186;28;20032;-37
2021/08/09 03:12:18;;;;;;;11.27;3.92;;;15.00;82.10;;;;;;5055931;28;20021;-47
2021/08/09 03:14:49;;;;;;;9.63;3.40;;;15.00;82.60;;;;;;5055831;28;20025;-48
2021/08/09 03:17:15;;;;;;;8.43;2.85;;;15.00;82.50;;;;;;5055654;28;20044;-51
2021/08/09 03:19:41;;;;;;;7.38;3.30;;;15.10;82.20;;;;;;5055818;28;20033;-48
2021/08/09 03:22:07;;;;;;;10.50;3.33;;;15.10;82.00;;;;;;5055614;28;20510;-48
2021/08/09 03:24:32;;;;;;;9.82;2.80;;;15.10;81.90;;;;;;5055707;28;20025;-48
2021/08/09 03:27:01;;;;;;;5.22;2.65;;;15.10;81.90;;;;;;5055279;28;20021;-47
2021/08/09 03:29:26;;;;;;;7.90;3.17;;;15.00;82.40;;;;;;5055300;28;20028;-46
2021/08/09 03:31:52;;;;;;;8.98;3.40;;;15.00;82.60;;;;;;5055124;28;20111;-50
2021/08/09 03:34:18;;;;;;;8.07;3.17;;;15.00;82.20;;;;;;5055658;28;20033;-52
2021/08/09 03:36:46;;;;;;;4.38;3.30;;;15.10;82.10;;;;;;5055535;28;20334;-47
2021/08/09 03:39:12;;;;;;;5.00;3.20;;;15.10;82.00;;;;;;5055174;28;20033;-47
2021/08/09 03:41:38;;;;;;;6.65;2.90;;;15.20;82.10;;;;;;5055136;28;20155;-47
2021/08/09 03:44:05;;;;;;;6.90;3.08;;;15.10;82.10;;;;;;5056282;28;20120;-47
2021/08/09 03:46:31;;;;;;;5.35;3.17;;;15.00;82.20;;;;;;5056022;28;20052;-47
2021/08/09 03:48:57;;;;;;;8.90;3.47;;;15.10;82.30;;;;;;5055565;28;20116;-46
2021/08/09 03:51:23;;;;;;;12.43;3.03;;;15.10;82.50;;;;;;5055714;28;20048;-49
2021/08/09 03:53:48;;;;;;;7.63;3.35;;;15.10;82.20;;;;;;5055220;28;20079;-46
2021/08/09 03:56:14;;;;;;;12.52;3.00;;;15.10;82.40;;;;;;5055304;28;20024;-45
2021/08/09 03:58:39;;;;;;;4.93;2.53;;;15.10;82.30;;;;;;5055427;28;20108;-46
2021/08/09 04:01:07;;;;;;;6.88;2.70;;;15.00;82.70;;;;;;5053665;28;20579;-49
2021/08/09 04:03:33;;;;;;;9.68;2.70;;;15.10;82.50;;;;;;5055128;28;20039;-47
2021/08/09 04:05:58;;;;;;;5.95;2.40;;;15.10;82.40;;;;;;5054738;28;20096;-48
2021/08/09 04:08:24;;;;;;;9.25;3.35;;;15.10;82.50;;;;;;5054544;28;20028;-45
2021/08/09 04:10:49;;;;;;;7.28;2.78;;;15.10;82.50;;;;;;5054821;28;20061;-46
2021/08/09 04:13:15;;;;;;;7.97;2.33;;;15.20;82.30;;;;;;5054504;28;20047;-46
2021/08/09 04:15:40;;;;;;;6.85;2.92;;;15.20;82.30;;;;;;5054326;28;20032;-45
2021/08/09 04:18:06;;;;;;;7.10;2.40;;;15.30;81.50;;;;;;5054866;28;20465;-47
2021/08/09 04:20:33;;;;;;;5.50;2.45;;;15.30;81.50;;;;;;5053823;28;20075;-47
2021/08/09 04:22:58;;;;;;;5.80;2.97;;;15.30;81.70;;;;;;5053897;28;20123;-49
2021/08/09 04:25:27;;;;;;;7.95;2.42;;;15.40;81.20;;;;;;5055317;28;20025;-50
2021/08/09 04:27:53;;;;;;;4.45;2.53;;;15.50;80.90;;;;;;5053799;28;20119;-47
2021/08/09 04:30:18;;;;;;;3.55;2.10;;;15.40;80.90;;;;;;5054891;28;20057;-46
2021/08/09 04:32:44;;;;;;;4.43;2.75;;;15.40;80.70;;;;;;5054449;28;20375;-46
2021/08/09 04:35:11;;;;;;;7.43;2.20;;;15.50;80.60;;;;;;5054642;28;20025;-47
2021/08/09 04:37:38;;;;;;;9.95;2.60;;;15.50;80.30;;;;;;5054620;28;20021;-46
2021/08/09 04:40:06;;;;;;;8.43;2.72;;;15.40;81.20;;;;;;5054275;28;20159;-48
2021/08/09 04:42:32;;;;;;;4.78;1.73;;;15.40;80.90;;;;;;5054751;28;20029;-46
2021/08/09 04:44:58;;;;;;;5.30;2.83;;;15.40;80.50;;;;;;5054493;28;20024;-49
2021/08/09 04:47:23;;;;;;;6.28;2.60;;;15.30;81.30;;;;;;5054277;28;20480;-50
2021/08/09 04:49:49;;;;;;;5.05;2.60;;;15.40;80.90;;;;;;5052783;28;20375;-47
2021/08/09 04:52:15;;;;;;;6.50;2.35;;;15.40;80.60;;;;;;5053560;28;20427;-47
2021/08/09 04:54:41;;;;;;;5.18;2.70;;;15.50;80.50;;;;;;5053555;28;20096;-48
2021/08/09 04:57:08;;;;;;;9.18;3.05;;;15.50;80.70;;;;;;5051747;28;20389;-47
2021/08/09 04:59:33;;;;;;;6.05;2.75;;;15.50;80.20;;;;;;5053779;28;20061;-46
2021/08/09 05:01:59;;;;;;;9.77;2.85;;;15.50;80.50;;;;;;5053890;28;20060;-47
2021/08/09 05:04:24;;;;;;;8.80;3.22;;;15.50;80.50;;;;;;5053703;28;20033;-46
2021/08/09 05:06:50;;;;;;;7.28;3.00;;;15.50;80.50;;;;;;5053822;28;20033;-47
2021/08/09 05:09:16;;;;;;;4.78;3.00;;;15.50;80.40;;;;;;5054066;28;20353;-49
2021/08/09 05:11:41;;;;;;;8.75;2.88;;;15.50;80.90;;;;;;5054125;28;20031;-49
2021/08/09 05:14:07;;;;;;;6.82;3.45;;;15.60;80.80;;;;;;5054015;28;20104;-46
2021/08/09 05:16:36;;;;;;;9.77;3.03;;;15.80;80.00;;;;;;5053711;28;20426;-46
2021/08/09 05:19:03;;;;;;;6.13;2.97;;;16.00;78.70;;;;;;5052777;28;20145;-50
2021/08/09 05:21:30;;;;;;;12.93;3.25;;;15.80;79.60;;;;;;5053630;28;20079;-47
2021/08/09 05:23:57;;;;;;;5.22;2.28;;;15.80;79.80;;;;;;5053206;28;20052;-45
2021/08/09 05:26:23;;;;;;;9.00;2.53;;;15.80;80.10;;;;;;5051745;28;20033;-47
2021/08/09 05:28:48;;;;;;;13.90;3.58;;;15.80;80.50;;;;;;5053033;28;20491;-48
2021/08/09 05:31:14;;;;;;;10.10;3.20;;;15.80;80.20;;;;;;5051480;28;20017;-48
2021/08/09 05:33:40;;;;;;;7.45;3.28;;;15.80;80.10;;;;;;5052509;28;20060;-46
2021/08/09 05:36:07;;;;;;;12.85;4.88;;;16.10;79.20;;;;;;5052843;28;20207;-48
2021/08/09 05:38:32;;;;;;;9.95;3.03;;;16.20;79.10;;;;;;5053248;28;20465;-47
2021/08/09 05:40:58;;;;;;;8.13;3.05;;;16.30;78.50;;;;;;5053116;28;20031;-47
2021/08/09 05:43:24;;;;;;;12.70;3.47;;;16.50;78.10;;;;;;5052958;28;20508;-49
2021/08/09 05:45:49;;;;;;;7.28;2.38;;;16.60;78.00;;;;;;5052731;28;20036;-47
2021/08/09 05:48:15;;;;;;;8.07;2.50;;;16.50;77.70;;;;;;5053168;28;20029;-48
2021/08/09 05:50:40;;;;;;;4.63;2.80;;;16.10;79.80;;;;;;5051525;28;20127;-47
2021/08/09 05:53:06;;;;;;;8.52;3.03;;;16.20;79.60;;;;;;5052660;28;20025;-46
2021/08/09 05:55:32;;;;;;;10.48;3.00;;;16.30;79.30;;;;;;5052537;28;20040;-46
2021/08/09 05:57:58;;;;;;;6.68;2.45;;;16.30;79.90;;;;;;5051460;28;20025;-47
2021/08/09 06:00:24;;;;;;;8.10;3.75;;;16.50;79.50;;;;;;5052960;28;20204;-46
2021/08/09 06:02:50;;;;;;;7.00;2.75;;;16.50;79.40;;;;;;5052423;28;20033;-47
2021/08/09 06:05:16;;;;;;;14.10;4.10;;;16.30;79.80;;;;;;5052913;28;20052;-51
2021/08/09 06:07:42;;;;;;;27.73;5.88;;;16.50;79.70;;;;;;5052602;28;20108;-46
2021/08/09 06:10:08;;;;;;;8.10;3.33;;;16.40;79.50;;;;;;5051136;28;20362;-46
2021/08/09 06:12:36;;;;;;;8.18;3.40;;;16.50;79.70;;;;;;5052245;28;20025;-47
2021/08/09 06:15:04;;;;;;;9.52;3.83;;;16.40;80.80;;;;;;5052629;28;20029;-48
2021/08/09 06:17:30;;;;;;;8.82;3.08;;;16.60;80.30;;;;;;5052486;28;20104;-47
2021/08/09 06:19:55;;;;;;;7.03;2.97;;;16.60;80.60;;;;;;5052227;28;20033;-47
2021/08/09 06:22:21;;;;;;;6.93;2.90;;;16.60;80.60;;;;;;5052536;28;20023;-47
2021/08/09 06:24:47;;;;;;;10.88;2.50;;;16.60;80.30;;;;;;5052200;28;20025;-47
2021/08/09 06:27:12;;;;;;;5.38;2.88;;;16.40;80.30;;;;;;5052517;28;20071;-51
2021/08/09 06:29:38;;;;;;;7.97;3.25;;;16.40;81.30;;;;;;5052414;28;20036;-48
2021/08/09 06:32:04;;;;;;;23.80;5.68;;;16.40;82.10;;;;;;5052818;28;20493;-48
2021/08/09 06:34:30;;;;;;;11.38;3.05;;;16.40;81.50;;;;;;5052876;28;20040;-51
2021/08/09 06:36:56;;;;;;;14.27;3.50;;;16.60;81.00;;;;;;5051569;28;20114;-47
2021/08/09 06:39:22;;;;;;;9.77;3.47;;;16.60;80.20;;;;;;5051765;28;20043;-46
2021/08/09 06:41:48;;;;;;;31.83;6.93;;;16.40;81.00;;;;;;5052495;28;20025;-46
2021/08/09 06:44:14;;;;;;;20.50;4.28;;;16.50;80.50;;;;;;5051331;28;20060;-47
2021/08/09 06:46:39;;;;;;;12.20;3.50;;;16.50;80.40;;;;;;5053207;28;20021;-48
2021/08/09 06:49:05;;;;;;;13.30;3.38;;;16.50;80.60;;;;;;5052743;28;20044;-48
2021/08/09 06:51:32;;;;;;;13.30;3.38;;;16.50;80.40;;;;;;5052452;28;20021;-50
2021/08/09 06:53:58;;;;;;;12.93;3.25;;;16.60;80.20;;;;;;5050649;28;20079;-48
2021/08/09 06:56:23;;;;;;;11.75;4.13;;;16.60;80.00;;;;;;5050458;28;20025;-48
2021/08/09 06:58:49;;;;;;;4.88;2.65;;;16.40;80.20;;;;;;5052455;28;20464;-49
2021/08/09 07:01:14;;;;;;;6.68;3.08;;;16.30;81.20;;;;;;5053043;28;20071;-48
2021/08/09 07:03:43;;;;;;;7.20;2.25;;;16.40;81.30;;;;;;5055545;28;20029;-49
2021/08/09 07:06:21;;;;;;;6.45;2.80;;;16.30;80.80;;;;;;5055762;28;20029;-48
2021/08/09 07:08:49;;;;;;;6.57;2.90;;;16.30;82.10;;;;;;5056100;28;20044;-49
2021/08/09 07:11:14;;;;;;;7.43;2.85;;;16.10;82.30;;;;;;5055934;28;20168;-47
2021/08/09 07:13:40;;;;;;;5.93;2.67;;;16.10;81.70;;;;;;5056073;28;20163;-48
2021/08/09 07:16:06;;;;;;;6.55;2.90;;;16.10;81.80;;;;;;5056633;28;20029;-47
2021/08/09 07:18:33;;;;;;;7.63;3.95;;;16.10;81.90;;;;;;5056093;28;20436;-48
2021/08/09 07:20:59;;;;;;;8.60;3.22;;;16.20;81.60;;;;;;5055829;28;20033;-48
2021/08/09 07:23:24;;;;;;;8.13;3.80;;;16.10;82.10;;;;;;5056242;28;20065;-47
2021/08/09 07:25:50;;;;;;;5.20;2.70;;;16.00;82.60;;;;;;5056052;28;20075;-48
2021/08/09 07:28:15;;;;;;;4.95;3.65;;;16.10;82.40;;;;;;5056180;28;20377;-48
2021/08/09 07:30:41;;;;;;;6.88;3.13;;;16.30;82.60;;;;;;5056098;28;20020;-49
2021/08/09 07:33:07;;;;;;;10.45;3.25;;;16.20;83.00;;;;;;5056089;28;20053;-50
2021/08/09 07:35:33;;;;;;;9.82;2.90;;;16.40;82.00;;;;;;5055446;28;20028;-48
2021/08/09 07:37:59;;;;;;;12.07;3.60;;;16.60;81.50;;;;;;5055942;28;20033;-47
2021/08/09 07:40:25;;;;;;;8.85;3.05;;;16.80;80.80;;;;;;5054880;28;20055;-37
2021/08/09 07:42:51;;;;;;;9.30;3.65;;;16.60;82.00;;;;;;5056356;28;20025;-36
2021/08/09 07:45:16;;;;;;;5.63;2.83;;;16.90;80.80;;;;;;5055970;28;20029;-37
2021/08/09 07:47:42;;;;;;;8.98;3.28;;;17.00;81.00;;;;;;5055640;28;20021;-37
2021/08/09 07:50:08;;;;;;;5.35;2.80;;;17.30;80.10;;;;;;5055503;28;20465;-37
2021/08/09 07:52:34;;;;;;;15.68;4.75;;;17.30;80.20;;;;;;5055362;28;20131;-37
2021/08/09 07:55:01;;;;;;;12.02;3.75;;;17.80;78.00;;;;;;5053572;28;20568;-41
2021/08/09 07:57:27;;;;;;;9.88;6.10;;;17.80;77.70;;;;;;5055541;28;20033;-38
2021/08/09 07:59:53;;;;;;;3.47;2.40;;;18.00;77.40;;;;;;5055173;28;20039;-38
2021/08/09 08:02:20;;;;;;;5.82;2.53;;;18.10;76.60;;;;;;5055408;28;20095;-38
2021/08/09 08:04:45;;;;;;;4.65;2.08;;;18.50;75.30;;;;;;5055386;28;20112;-38
2021/08/09 08:07:11;;;;;;;5.75;2.25;;;18.60;73.90;;;;;;5055151;28;20444;-37
2021/08/09 08:09:37;;;;;;;8.25;2.78;;;18.20;73.90;;;;;;5054684;28;20104;-37
2021/08/09 08:12:03;;;;;;;8.75;3.58;;;18.30;75.30;;;;;;5055004;28;20028;-37
2021/08/09 08:14:29;;;;;;;5.30;2.33;;;18.30;74.50;;;;;;5053574;28;20180;-37
2021/08/09 08:16:55;;;;;;;5.50;2.08;;;18.00;74.80;;;;;;5054849;28;20124;-37
2021/08/09 08:19:21;;;;;;;3.50;2.00;;;18.60;74.20;;;;;;5054116;28;20039;-37
2021/08/09 08:21:47;;;;;;;4.75;1.83;;;18.50;73.40;;;;;;5053777;28;20040;-37
2021/08/09 08:24:12;;;;;;;3.13;1.73;;;19.20;71.20;;;;;;5052814;28;20029;-38
2021/08/09 08:26:38;;;;;;;3.53;1.70;;;20.10;67.80;;;;;;5054786;28;20480;-37
2021/08/09 08:29:04;;;;;;;3.88;2.25;;;19.70;67.70;;;;;;5053565;28;20121;-37
2021/08/09 08:31:30;;;;;;;8.43;2.55;;;19.60;69.20;;;;;;5053739;28;20424;-36
2021/08/09 08:33:59;;;;;;;6.68;2.30;;;20.10;67.20;;;;;;5054812;28;20072;-38
2021/08/09 08:36:25;;;;;;;2.58;1.70;;;20.90;65.40;;;;;;5052828;28;20119;-37
2021/08/09 08:38:51;;;;;;;4.65;1.92;;;21.10;62.50;;;;;;5053630;28;20053;-38
2021/08/09 08:41:17;;;;;;;3.75;1.85;;;20.80;61.50;;;;;;5053951;28;20041;-38
2021/08/09 08:43:44;;;;;;;6.72;2.33;;;20.60;63.70;;;;;;5053377;28;20039;-37
2021/08/09 08:46:10;;;;;;;6.07;1.50;;;21.60;60.10;;;;;;5052059;28;20020;-37
2021/08/09 08:48:37;;;;;;;4.97;2.67;;;21.80;58.60;;;;;;5051855;28;20538;-37
2021/08/09 08:51:04;;;;;;;6.47;1.73;;;22.00;58.70;;;;;;5053736;28;20029;-37
2021/08/09 08:53:35;;;;;;;2.63;1.70;;;21.70;59.30;;;;;;5052682;28;20143;-37
2021/08/09 08:56:08;;;;;;;4.38;1.45;;;21.20;59.10;;;;;;5055848;28;20043;-37
2021/08/09 08:58:34;;;;;;;3.25;1.52;;;21.60;58.70;;;;;;5051630;28;20025;-37
2021/08/09 09:01:00;;;;;;;10.65;2.28;;;21.70;57.80;;;;;;5051632;28;20021;-38
2021/08/09 09:03:27;;;;;;;3.45;1.60;;;21.80;58.10;;;;;;5053013;28;20518;-37
2021/08/09 09:06:08;;;;;;;5.35;1.83;;;21.30;58.70;;;;;;5053205;28;20029;-38
2021/08/09 09:08:39;;;;;;;5.25;1.80;;;21.60;57.40;;;;;;5054401;28;20439;-38
2021/08/09 09:11:09;;;;;;;2.20;1.30;;;22.10;57.50;;;;;;5053603;28;20049;-36
2021/08/09 09:13:34;;;;;;;3.90;1.45;;;22.50;56.60;;;;;;5052897;28;20481;-37
2021/08/09 09:16:03;;;;;;;4.10;1.52;;;22.10;54.60;;;;;;5053589;28;20029;-37
2021/08/09 09:18:53;;;;;;;10.38;1.70;;;21.80;55.90;;;;;;5052949;28;20028;-37
2021/08/09 09:21:29;;;;;;;4.22;1.98;;;22.20;54.60;;;;;;5052970;28;20032;-37
2021/08/09 09:24:15;;;;;;;5.88;1.77;;;22.30;55.70;;;;;;5053042;28;20044;-38
2021/08/09 09:26:46;;;;;;;12.98;2.78;;;22.60;55.50;;;;;;5053191;28;20092;-38
2021/08/09 09:29:13;;;;;;;5.05;2.28;;;22.60;55.20;;;;;;5053066;28;20087;-37
2021/08/09 09:31:40;;;;;;;7.75;3.75;;;22.70;54.20;;;;;;5052168;28;20079;-38
2021/08/09 09:34:19;;;;;;;8.48;1.55;;;22.80;54.10;;;;;;5052444;28;20087;-38
2021/08/09 09:36:49;;;;;;;1.88;1.48;;;22.40;54.60;;;;;;5052543;28;20100;-37
2021/08/09 09:39:30;;;;;;;5.30;1.77;;;22.70;53.10;;;;;;5052251;28;20033;-38
2021/08/09 09:41:59;;;;;;;2.78;1.27;;;22.80;52.60;;;;;;5051030;28;20072;-37
2021/08/09 09:44:27;;;;;;;3.35;1.60;;;22.60;53.10;;;;;;5052230;28;20029;-37
2021/08/09 09:46:53;;;;;;;3.10;1.23;;;22.70;52.40;;;;;;5052442;28;20028;-37
2021/08/09 09:49:32;;;;;;;8.27;1.98;;;23.20;51.60;;;;;;5052129;28;20045;-37
2021/08/09 09:51:59;;;;;;;10.25;4.60;;;23.00;51.80;;;;;;5052976;28;20044;-37
2021/08/09 09:54:26;;;;;;;4.63;2.00;;;23.30;52.00;;;;;;5052525;28;20036;-37
2021/08/09 09:56:53;;;;;;;3.25;1.17;;;22.70;52.30;;;;;;5051886;28;20040;-37
2021/08/09 09:59:19;;;;;;;3.00;1.58;;;22.10;54.10;;;;;;5052230;28;20538;-37
2021/08/09 10:01:45;;;;;;;4.65;1.83;;;22.70;52.90;;;;;;5050942;28;20116;-37
2021/08/09 10:04:11;;;;;;;3.78;1.40;;;22.70;52.40;;;;;;5051304;28;20029;-37
2021/08/09 10:06:39;;;;;;;5.07;1.50;;;22.60;53.30;;;;;;5052770;28;20432;-37
2021/08/09 10:09:07;;;;;;;3.80;1.95;;;22.20;54.10;;;;;;5034647;28;20059;-38
2021/08/09 10:11:35;;;;;;;5.68;1.67;;;21.90;55.30;;;;;;5053040;28;20381;-37
2021/08/09 10:14:02;;;;;;;3.20;1.67;;;21.80;52.80;;;;;;5052402;28;20465;-38
2021/08/09 10:16:33;;;;;;;5.50;2.00;;;21.80;53.30;;;;;;5052208;28;20028;-37
2021/08/09 10:19:00;;;;;;;4.38;1.65;;;21.70;53.60;;;;;;5052338;28;20361;-38
2021/08/09 10:21:34;;;;;;;4.32;1.58;;;22.10;53.20;;;;;;5052123;28;20024;-38
2021/08/09 10:24:00;;;;;;;6.22;1.50;;;22.20;52.20;;;;;;5050492;28;20032;-38
2021/08/09 10:26:31;;;;;;;6.95;2.50;;;21.50;54.50;;;;;;5050558;28;20032;-37
2021/08/09 10:29:02;;;;;;;6.63;3.08;;;21.50;55.20;;;;;;5051948;28;20079;-38
2021/08/09 10:31:30;;;;;;;4.10;1.20;;;21.20;55.50;;;;;;5051681;28;20017;-38
2021/08/09 10:33:56;;;;;;;3.95;1.45;;;20.70;57.00;;;;;;5050759;28;20037;-38
2021/08/09 10:36:23;;;;;;;4.70;1.50;;;20.70;57.10;;;;;;5053100;28;20028;-38
2021/08/09 10:38:53;;;;;;;3.65;1.45;;;21.30;55.90;;;;;;5055969;28;20029;-38
2021/08/09 10:41:31;;;;;;;5.18;1.73;;;21.40;56.10;;;;;;5056799;28;20049;-38
2021/08/09 10:44:06;;;;;;;7.93;1.65;;;21.70;55.70;;;;;;5056245;28;20412;-36
2021/08/09 10:46:38;;;;;;;3.60;1.42;;;21.60;56.20;;;;;;5055758;28;20024;-37
2021/08/09 10:49:05;;;;;;;3.63;1.48;;;21.40;56.50;;;;;;5055891;28;20056;-37
2021/08/09 10:51:52;;;;;;;5.38;1.88;;;21.40;56.50;;;;;;5056021;28;20059;-37
2021/08/09 10:54:30;;;;;;;3.53;1.23;;;21.40;57.20;;;;;;5055799;28;20467;-37
2021/08/09 10:56:57;;;;;;;4.45;1.73;;;21.90;54.90;;;;;;5055955;28;20104;-37
2021/08/09 10:59:46;;;;;;;4.95;1.75;;;22.10;54.80;;;;;;5055611;28;20025;-37
2021/08/09 11:02:23;;;;;;;8.23;2.00;;;22.80;52.60;;;;;;5055825;28;20385;-37
2021/08/09 11:05:11;;;;;;;4.65;1.73;;;23.10;50.90;;;;;;5054079;28;20025;-36
2021/08/09 11:07:36;;;;;;;2.40;1.63;;;23.30;50.80;;;;;;5055089;28;20104;-38
2021/08/09 11:10:02;;;;;;;5.65;1.35;;;24.50;48.50;;;;;;5054876;28;20056;-38
2021/08/09 11:12:28;;;;;;;7.68;1.50;;;24.50;47.00;;;;;;5055320;28;20104;-39
2021/08/09 11:15:03;;;;;;;6.72;1.70;;;24.40;47.30;;;;;;5053952;28;20028;-38
2021/08/09 11:17:41;;;;;;;5.10;1.42;;;24.60;46.40;;;;;;5054402;28;20029;-38
2021/08/09 11:20:11;;;;;;;6.05;1.42;;;24.30;45.10;;;;;;5055499;28;20043;-37
2021/08/09 11:22:37;;;;;;;4.97;1.60;;;24.00;46.10;;;;;;5055401;28;20068;-37
2021/08/09 11:25:03;;;;;;;6.93;1.50;;;23.10;48.80;;;;;;5055402;28;20029;-37
2021/08/09 11:27:29;;;;;;;3.90;1.38;;;22.70;49.20;;;;;;5055198;28;20112;-37
2021/08/09 11:29:57;;;;;;;7.40;1.48;;;22.20;50.50;;;;;;5055075;28;20113;-38
2021/08/09 11:32:41;;;;;;;9.57;2.35;;;22.40;49.20;;;;;;5054933;28;20511;-37
2021/08/09 11:35:08;;;;;;;3.70;1.52;;;22.30;50.00;;;;;;5055255;28;20029;-37
2021/08/09 11:37:56;;;;;;;6.03;1.33;;;22.80;49.20;;;;;;5055041;28;20033;-37
2021/08/09 11:40:49;;;;;;;6.18;1.35;;;24.70;45.80;;;;;;5055313;28;20045;-38
2021/08/09 11:43:23;;;;;;;3.00;1.08;;;25.20;44.10;;;;;;5055362;28;20078;-38
2021/08/09 11:45:49;;;;;;;4.78;1.98;;;23.80;46.90;;;;;;5053544;28;20591;-37
2021/08/09 11:48:26;;;;;;;5.38;1.45;;;23.90;46.00;;;;;;5053583;28;20045;-37
2021/08/09 11:51:02;;;;;;;5.13;1.40;;;23.80;47.30;;;;;;5054818;28;20025;-38
2021/08/09 11:53:28;;;;;;;2.50;1.23;;;24.50;45.00;;;;;;5054706;28;20021;-37
2021/08/09 11:56:09;;;;;;;3.83;1.10;;;24.70;44.30;;;;;;5054910;28;20028;-38
2021/08/09 11:58:35;;;;;;;2.35;1.27;;;24.10;44.10;;;;;;5054841;28;20049;-38
2021/08/09 12:01:01;;;;;;;5.50;1.20;;;24.10;43.90;;;;;;5054870;28;20040;-38
2021/08/09 12:03:28;;;;;;;5.35;1.00;;;23.70;45.00;;;;;;5054283;28;20025;-38
2021/08/09 12:05:56;;;;;;;2.28;1.02;;;23.00;47.60;;;;;;5054476;28;20509;-38
2021/08/09 12:08:25;;;;;;;3.67;1.60;;;22.80;48.60;;;;;;5054295;28;20013;-38
2021/08/09 12:10:51;;;;;;;7.60;2.28;;;22.80;49.20;;;;;;5054564;28;20075;-38
2021/08/09 12:13:29;;;;;;;3.83;1.20;;;23.00;48.50;;;;;;5054047;28;20104;-38
2021/08/09 12:16:09;;;;;;;3.97;1.50;;;22.90;46.60;;;;;;5037066;28;20381;-38
2021/08/09 12:18:34;;;;;;;5.07;1.42;;;23.30;43.80;;;;;;5054639;28;20503;-37
2021/08/09 12:21:13;;;;;;;4.25;1.20;;;23.30;44.30;;;;;;5054330;28;20029;-38
2021/08/09 12:23:59;;;;;;;5.83;1.93;;;23.90;43.40;;;;;;5054152;28;20446;-37
2021/08/09 12:26:28;;;;;;;2.97;0.90;;;23.30;45.80;;;;;;5054005;28;20371;-37
2021/08/09 12:28:57;;;;;;;7.07;1.35;;;23.10;45.20;;;;;;5054009;28;20029;-37
2021/08/09 12:31:45;;;;;;;3.08;1.00;;;23.60;45.10;;;;;;5053885;28;20100;-39
2021/08/09 12:34:12;;;;;;;6.75;1.70;;;23.30;46.10;;;;;;5053847;28;20032;-38
2021/08/09 12:36:38;;;;;;;4.03;1.30;;;23.50;45.60;;;;;;5052404;28;20059;-38
2021/08/09 12:39:06;;;;;;;4.20;1.33;;;23.20;46.40;;;;;;5052776;28;20143;-38
2021/08/09 12:41:33;;;;;;;3.00;1.23;;;23.10;47.50;;;;;;5053912;28;20133;-38
2021/08/09 12:44:04;;;;;;;5.63;1.77;;;22.80;48.30;;;;;;5053726;28;20036;-38
2021/08/09 12:46:31;;;;;;;2.75;1.50;;;23.10;47.50;;;;;;5054061;28;20021;-37
2021/08/09 12:48:58;;;;;;;5.55;1.92;;;22.70;48.90;;;;;;5052590;28;20086;-37
2021/08/09 12:51:24;;;;;;;5.00;1.48;;;22.40;50.00;;;;;;5053781;28;20479;-37